Time;durP1;ratioP1;P1;durP2;ratioP2;P2;SDS_P1;SDS_P2;PMS_P1;PMS_P2;Temp;Humidity;BMP_temperature;BMP_pressure;BME280_temperature;BME280_humidity;BME280_pressure;Samples;Min_cycle;Max_cycle;Signal;HPM_P1;HPM_P2
2023/05/21 00:00:45;;;;;;;6.65;3.38;;;;;;;15.39;80.22;101736.03;5075384;28;20048;-64
2023/05/21 00:03:14;;;;;;;8.07;3.80;;;;;;;15.44;79.59;101742.38;5054015;28;20051;-65
2023/05/21 00:05:45;;;;;;;8.43;3.90;;;;;;;15.50;79.34;101735.75;5053218;28;20043;-65
2023/05/21 00:08:14;;;;;;;6.30;3.58;;;;;;;15.46;79.44;101733.81;5057231;28;20045;-66
2023/05/21 00:10:41;;;;;;;7.82;3.83;;;;;;;15.45;79.74;101732.19;5057126;28;20048;-65
2023/05/21 00:13:09;;;;;;;6.57;3.92;;;;;;;15.37;80.50;101730.84;5052678;28;20064;-64
2023/05/21 00:15:37;;;;;;;7.40;3.63;;;;;;;15.32;80.93;101722.59;5051438;28;20099;-64
2023/05/21 00:18:05;;;;;;;7.40;3.53;;;;;;;15.28;81.75;101727.00;5034008;28;20117;-65
2023/05/21 00:20:34;;;;;;;9.57;3.40;;;;;;;15.26;81.93;101719.03;5034971;28;20041;-64
2023/05/21 00:23:02;;;;;;;7.30;3.58;;;;;;;15.22;82.54;101720.69;5038144;28;20071;-65
2023/05/21 00:25:30;;;;;;;9.23;3.75;;;;;;;15.22;82.37;101711.63;5051799;28;20107;-65
2023/05/21 00:27:58;;;;;;;7.55;3.38;;;;;;;15.19;82.75;101707.53;5054680;28;20044;-64
2023/05/21 00:30:26;;;;;;;8.32;3.40;;;;;;;15.17;83.03;101706.16;5037371;28;20064;-65
2023/05/21 00:32:53;;;;;;;9.55;3.92;;;;;;;15.17;83.09;101703.41;5053970;28;20102;-65
2023/05/21 00:35:21;;;;;;;9.57;3.70;;;;;;;15.21;82.93;101710.81;5052649;28;20053;-66
2023/05/21 00:37:49;;;;;;;6.47;3.47;;;;;;;15.24;83.15;101702.03;5049660;28;20072;-65
2023/05/21 00:40:18;;;;;;;7.90;3.90;;;;;;;15.26;82.72;101705.31;5057197;28;20072;-65
2023/05/21 00:42:46;;;;;;;7.32;3.90;;;;;;;15.26;83.13;101707.25;5054015;28;20099;-64
2023/05/21 00:45:14;;;;;;;6.55;3.70;;;;;;;15.23;83.42;101702.31;5052969;28;20069;-65
2023/05/21 00:47:42;;;;;;;7.93;3.72;;;;;;;15.27;83.25;101698.75;5037195;28;20045;-65
2023/05/21 00:50:13;;;;;;;7.55;3.80;;;;;;;15.27;82.58;101696.00;5053855;28;20052;-64
2023/05/21 00:52:44;;;;;;;5.43;3.65;;;;;;;15.21;82.96;101691.59;5053757;28;20110;-65
2023/05/21 00:55:12;;;;;;;6.53;3.70;;;;;;;15.18;83.18;101694.91;5051439;28;20103;-66
2023/05/21 00:57:41;;;;;;;9.23;3.90;;;;;;;15.20;83.15;101695.47;5066511;28;20049;-65
2023/05/21 01:00:09;;;;;;;5.82;3.50;;;;;;;15.09;83.58;101691.09;5073117;28;20420;-65
2023/05/21 01:02:38;;;;;;;7.93;3.75;;;;;;;15.07;83.55;101698.78;5074985;28;20059;-65
2023/05/21 01:05:06;;;;;;;7.57;3.65;;;;;;;15.00;83.99;101693.56;5073654;28;20098;-65
2023/05/21 01:07:37;;;;;;;7.18;3.92;;;;;;;14.91;84.72;101693.31;5045792;28;20048;-66
2023/05/21 01:10:07;;;;;;;6.00;3.65;;;;;;;14.88;84.58;101696.59;5033991;28;20049;-65
2023/05/21 01:12:38;;;;;;;6.68;3.47;;;;;;;14.87;84.96;101694.94;5033625;28;20055;-65
2023/05/21 01:15:08;;;;;;;6.65;3.67;;;;;;;14.94;84.88;101689.19;5033779;28;20053;-65
2023/05/21 01:17:36;;;;;;;8.85;3.50;;;;;;;15.03;84.53;101690.28;5012622;28;20523;-64
2023/05/21 01:20:09;;;;;;;6.68;3.60;;;;;;;15.11;83.84;101688.88;5037163;28;20485;-65
2023/05/21 01:22:57;;;;;;;11.57;3.55;;;;;;;15.20;83.02;101692.72;5054954;28;20048;-65
2023/05/21 01:25:24;;;;;;;6.20;3.45;;;;;;;15.22;83.02;101685.00;5036774;28;20049;-66
2023/05/21 01:27:52;;;;;;;6.40;3.20;;;;;;;15.26;82.78;101686.09;5037979;28;20049;-64
2023/05/21 01:30:21;;;;;;;6.68;3.55;;;;;;;15.18;83.36;101683.94;5037610;28;20110;-66
2023/05/21 01:32:49;;;;;;;5.72;3.47;;;;;;;15.16;83.46;101680.63;5052503;28;20103;-66
2023/05/21 01:35:40;;;;;;;5.95;3.28;;;;;;;15.12;83.60;101682.28;5053251;28;20051;-65
2023/05/21 01:38:27;;;;;;;6.53;3.33;;;;;;;15.05;83.83;101681.75;5034406;28;20049;-66
2023/05/21 01:41:02;;;;;;;6.07;3.58;;;;;;;15.01;84.47;101683.38;5021061;28;20049;-64
2023/05/21 01:43:37;;;;;;;7.40;3.70;;;;;;;15.03;84.58;101682.03;5052158;28;20057;-66
2023/05/21 01:46:06;;;;;;;6.03;3.42;;;;;;;14.96;84.95;101666.94;5040611;28;20477;-65
2023/05/21 01:48:35;;;;;;;6.88;3.40;;;;;;;15.01;84.97;101678.75;5020036;28;20041;-65
2023/05/21 01:51:04;;;;;;;8.98;3.83;;;;;;;15.02;85.03;101674.06;5036101;28;20037;-63
2023/05/21 01:53:32;;;;;;;6.05;3.40;;;;;;;15.04;84.75;101666.41;5053775;28;20474;-64
2023/05/21 01:56:01;;;;;;;6.53;3.78;;;;;;;15.02;85.07;101668.59;5034364;28;20447;-65
2023/05/21 01:58:29;;;;;;;7.95;3.78;;;;;;;14.96;85.41;101669.69;5052903;28;20057;-66
2023/05/21 02:00:57;;;;;;;6.10;3.40;;;;;;;14.90;86.04;101677.09;5053277;28;20124;-65
2023/05/21 02:03:26;;;;;;;6.63;3.30;;;;;;;14.86;86.42;101671.38;5038609;28;20124;-65
2023/05/21 02:05:54;;;;;;;5.25;3.30;;;;;;;14.88;86.36;101674.63;5076413;28;20408;-64
2023/05/21 02:08:22;;;;;;;5.28;3.33;;;;;;;14.90;86.31;101668.88;5060788;28;20081;-66
2023/05/21 02:10:50;;;;;;;6.40;3.70;;;;;;;14.91;86.56;101665.03;5058550;28;20060;-63
2023/05/21 02:13:21;;;;;;;7.57;3.50;;;;;;;14.90;86.46;101661.47;5061381;28;20036;-63
2023/05/21 02:15:53;;;;;;;6.57;3.53;;;;;;;14.96;86.11;101669.69;5054282;28;20141;-63
2023/05/21 02:18:22;;;;;;;7.75;4.13;;;;;;;14.97;86.17;101665.84;5043567;28;20397;-61
2023/05/21 02:20:50;;;;;;;8.43;3.70;;;;;;;14.88;87.01;101660.91;5049043;28;20064;-63
2023/05/21 02:23:17;;;;;;;6.72;3.90;;;;;;;14.90;86.98;101663.38;5054286;28;20041;-64
2023/05/21 02:25:45;;;;;;;9.13;3.97;;;;;;;14.83;87.70;101660.91;5066609;28;20045;-64
2023/05/21 02:28:14;;;;;;;5.90;3.47;;;;;;;14.85;87.70;101663.41;5064481;28;20045;-63
2023/05/21 02:30:42;;;;;;;6.40;3.63;;;;;;;14.87;87.80;101664.75;5061445;28;20049;-63
2023/05/21 02:33:13;;;;;;;6.90;3.80;;;;;;;14.84;87.91;101661.72;5059750;28;20048;-65
2023/05/21 02:35:41;;;;;;;6.70;3.78;;;;;;;14.84;88.26;101662.59;5057355;28;20048;-64
2023/05/21 02:38:09;;;;;;;8.48;3.83;;;;;;;14.88;88.06;101663.66;5073626;28;20538;-63
2023/05/21 02:40:37;;;;;;;6.28;3.33;;;;;;;14.87;88.47;101661.22;5049759;28;20046;-65
2023/05/21 02:43:04;;;;;;;6.68;3.67;;;;;;;14.90;88.35;101658.72;5044287;28;20079;-64
2023/05/21 02:45:33;;;;;;;6.07;3.83;;;;;;;14.94;88.06;101656.25;5056462;28;20543;-65
2023/05/21 02:48:01;;;;;;;6.25;3.70;;;;;;;14.88;88.89;101658.16;5039414;28;20041;-65
2023/05/21 02:50:32;;;;;;;5.45;3.63;;;;;;;14.90;88.97;101653.22;5040175;28;20086;-64
2023/05/21 02:53:00;;;;;;;6.93;3.60;;;;;;;14.90;89.01;101657.91;5063656;28;20055;-64
2023/05/21 02:55:31;;;;;;;6.32;3.78;;;;;;;14.93;89.01;101651.03;5060275;28;20094;-64
2023/05/21 02:57:58;;;;;;;8.25;3.95;;;;;;;14.94;89.16;101658.19;5060386;28;20055;-64
2023/05/21 03:00:27;;;;;;;8.75;3.83;;;;;;;14.90;89.38;101653.22;5077475;28;20484;-64
2023/05/21 03:02:55;;;;;;;6.15;3.80;;;;;;;14.93;89.34;101648.28;5073835;28;20499;-64
2023/05/21 03:05:23;;;;;;;7.95;4.10;;;;;;;14.81;90.36;101651.31;5052965;28;20050;-65
2023/05/21 03:07:52;;;;;;;7.85;3.75;;;;;;;14.76;90.95;101643.09;5055085;28;20103;-65
2023/05/21 03:10:20;;;;;;;10.18;4.55;;;;;;;14.75;91.08;101638.72;5038326;28;20102;-65
2023/05/21 03:12:48;;;;;;;5.13;3.70;;;;;;;14.72;91.54;101639.25;5048058;28;20056;-64
2023/05/21 03:15:16;;;;;;;7.55;4.05;;;;;;;14.77;91.54;101640.09;5075445;28;20047;-65
2023/05/21 03:17:44;;;;;;;9.50;4.00;;;;;;;14.80;91.06;101645.03;5058292;28;20049;-64
2023/05/21 03:20:15;;;;;;;9.10;4.32;;;;;;;14.85;90.78;101642.25;5055358;28;20127;-64
2023/05/21 03:22:43;;;;;;;7.85;4.00;;;;;;;14.88;90.69;101644.44;5069879;28;20116;-65
2023/05/21 03:25:12;;;;;;;16.52;4.57;;;;;;;14.88;90.65;101635.41;5038642;28;20068;-65
2023/05/21 03:27:40;;;;;;;10.10;4.00;;;;;;;14.86;90.71;101627.47;5055308;28;20053;-65
2023/05/21 03:30:22;;;;;;;5.45;3.70;;;;;;;14.79;91.42;101628.81;5054032;28;20045;-66
2023/05/21 03:33:27;;;;;;;7.07;4.03;;;;;;;14.81;91.33;101630.19;5061111;28;20060;-65
2023/05/21 03:35:55;;;;;;;7.65;4.18;;;;;;;14.83;91.12;101625.25;5058040;28;20041;-65
2023/05/21 03:38:25;;;;;;;8.38;4.25;;;;;;;14.78;91.33;101619.78;5034778;28;20045;-65
2023/05/21 03:40:54;;;;;;;10.13;4.28;;;;;;;14.76;91.51;101626.63;5020138;28;20056;-65
2023/05/21 03:43:22;;;;;;;7.72;4.13;;;;;;;14.73;91.99;101632.69;5014202;28;20476;-65
2023/05/21 03:45:50;;;;;;;6.45;4.07;;;;;;;14.66;92.43;101631.03;5035316;28;20366;-65
2023/05/21 03:48:38;;;;;;;6.38;3.70;;;;;;;14.63;92.85;101628.84;5028106;28;20053;-65
2023/05/21 03:51:08;;;;;;;7.70;4.22;;;;;;;14.67;92.51;101629.94;5037504;28;20096;-65
2023/05/21 03:53:36;;;;;;;7.40;3.80;;;;;;;14.68;92.79;101641.75;5042941;28;20049;-65
2023/05/21 03:56:04;;;;;;;8.32;3.70;;;;;;;14.63;92.90;101637.09;5024898;28;20076;-65
2023/05/21 03:58:32;;;;;;;6.97;3.92;;;;;;;14.67;92.70;101634.59;5043051;28;20052;-64
2023/05/21 04:01:01;;;;;;;8.98;4.03;;;;;;;14.70;92.59;101639.56;5022994;28;20075;-65
2023/05/21 04:03:34;;;;;;;7.63;4.10;;;;;;;14.68;92.72;101636.25;5054110;28;20065;-65
2023/05/21 04:06:08;;;;;;;7.15;4.15;;;;;;;14.62;92.77;101627.22;5055584;28;20044;-64
2023/05/21 04:08:38;;;;;;;6.07;3.85;;;;;;;14.63;93.05;101636.25;5039386;28;20045;-65
2023/05/21 04:11:06;;;;;;;8.45;4.60;;;;;;;14.61;93.33;101642.00;5056012;28;20044;-66
2023/05/21 04:13:35;;;;;;;7.07;4.18;;;;;;;14.62;93.16;101635.44;5037196;28;20099;-65
2023/05/21 04:16:04;;;;;;;6.93;4.05;;;;;;;14.62;93.40;101637.34;5054603;28;20048;-66
2023/05/21 04:18:33;;;;;;;8.23;4.32;;;;;;;14.66;93.08;101633.78;5053583;28;20061;-66
2023/05/21 04:21:03;;;;;;;6.65;4.15;;;;;;;14.58;93.53;101637.09;5038014;28;20045;-65
2023/05/21 04:23:32;;;;;;;10.20;4.53;;;;;;;14.57;93.88;101638.16;5035205;28;20049;-65
2023/05/21 04:26:02;;;;;;;8.57;4.45;;;;;;;14.58;93.52;101645.31;5037531;28;20517;-64
2023/05/21 04:28:32;;;;;;;8.18;4.00;;;;;;;14.54;94.15;101641.47;5054212;28;20097;-65
2023/05/21 04:31:00;;;;;;;7.22;3.95;;;;;;;14.49;94.75;101635.97;5054237;28;20049;-65
2023/05/21 04:33:29;;;;;;;7.93;3.95;;;;;;;14.49;94.94;101634.03;5034426;28;20050;-63
2023/05/21 04:35:57;;;;;;;9.57;4.78;;;;;;;14.52;94.86;101642.81;5034559;28;20049;-65
2023/05/21 04:38:25;;;;;;;8.82;4.75;;;;;;;14.48;95.24;101637.88;5064284;28;20056;-66
2023/05/21 04:40:53;;;;;;;8.88;4.25;;;;;;;14.54;95.37;101643.41;5055239;28;20053;-66
2023/05/21 04:43:24;;;;;;;7.45;4.75;;;;;;;14.53;95.52;101644.44;5055648;28;20076;-65
2023/05/21 04:45:57;;;;;;;8.55;4.57;;;;;;;14.52;95.78;101642.81;5074014;28;20059;-64
2023/05/21 04:48:28;;;;;;;8.20;4.40;;;;;;;14.55;95.68;101648.63;5074808;28;20072;-65
2023/05/21 04:50:55;;;;;;;9.77;5.00;;;;;;;14.57;95.62;101651.06;5064976;28;20469;-65
2023/05/21 04:53:24;;;;;;;7.05;4.63;;;;;;;14.57;95.95;101637.34;5056721;28;20452;-66
2023/05/21 04:55:53;;;;;;;9.52;5.10;;;;;;;14.61;95.53;101643.94;5053135;28;20041;-66
2023/05/21 04:58:20;;;;;;;9.48;4.47;;;;;;;14.56;95.92;101638.47;5053328;28;20124;-65
2023/05/21 05:00:50;;;;;;;7.85;4.63;;;;;;;14.55;96.18;101645.88;5054401;28;20068;-65
2023/05/21 05:03:18;;;;;;;9.23;5.05;;;;;;;14.52;96.32;101645.56;5033719;28;20117;-65
2023/05/21 05:05:46;;;;;;;8.95;4.85;;;;;;;14.56;96.46;101647.50;5017521;28;20099;-65
2023/05/21 05:08:15;;;;;;;8.15;4.93;;;;;;;14.54;96.57;101649.69;5052242;28;20098;-65
2023/05/21 05:10:43;;;;;;;8.70;4.97;;;;;;;14.57;96.73;101651.06;5037118;28;20055;-65
2023/05/21 05:13:11;;;;;;;10.40;4.93;;;;;;;14.61;96.59;101652.16;5062166;28;20052;-65
2023/05/21 05:15:39;;;;;;;7.78;4.70;;;;;;;14.61;96.44;101646.69;5052962;28;20439;-65
2023/05/21 05:18:08;;;;;;;9.48;4.90;;;;;;;14.54;96.88;101644.22;5036921;28;20134;-65
2023/05/21 05:20:35;;;;;;;9.13;4.88;;;;;;;14.48;97.62;101642.56;5053109;28;20056;-65
2023/05/21 05:23:03;;;;;;;8.38;4.82;;;;;;;14.46;97.96;101639.25;5052604;28;20047;-65
2023/05/21 05:25:31;;;;;;;8.80;4.65;;;;;;;14.42;98.57;101638.97;5051965;28;20059;-65
2023/05/21 05:27:59;;;;;;;14.88;5.35;;;;;;;14.38;98.94;101632.41;5052936;28;20098;-64
2023/05/21 05:30:26;;;;;;;8.95;5.57;;;;;;;14.44;99.02;101639.50;5053089;28;20045;-65
2023/05/21 05:33:00;;;;;;;7.47;4.82;;;;;;;14.49;98.81;101635.97;5069421;28;20039;-65
2023/05/21 05:35:28;;;;;;;9.15;5.65;;;;;;;14.44;99.05;101631.28;5071455;28;20136;-66
2023/05/21 05:37:56;;;;;;;9.95;5.70;;;;;;;14.38;99.63;101628.81;5048576;28;20526;-66
2023/05/21 05:40:23;;;;;;;8.95;5.90;;;;;;;14.31;100.00;101629.09;5054157;28;20060;-64
2023/05/21 05:42:51;;;;;;;11.60;6.57;;;;;;;14.27;100.00;101636.22;5054333;28;20501;-65
2023/05/21 05:45:19;;;;;;;12.20;6.10;;;;;;;14.24;100.00;101645.00;5052561;28;20394;-63
2023/05/21 05:47:47;;;;;;;9.68;5.75;;;;;;;14.21;100.00;101645.53;5038250;28;20076;-65
2023/05/21 05:50:15;;;;;;;9.20;5.65;;;;;;;14.27;100.00;101644.44;5054994;28;20065;-65
2023/05/21 05:52:43;;;;;;;15.52;6.45;;;;;;;14.33;100.00;101634.31;5068984;28;20049;-66
2023/05/21 05:55:11;;;;;;;9.27;5.68;;;;;;;14.35;100.00;101632.13;5073388;28;20444;-66
2023/05/21 05:57:39;;;;;;;11.48;5.90;;;;;;;14.40;100.00;101630.19;5072176;28;20458;-64
2023/05/21 06:00:12;;;;;;;14.18;6.40;;;;;;;14.45;100.00;101632.09;5072779;28;20048;-64
2023/05/21 06:02:43;;;;;;;8.68;5.60;;;;;;;14.49;100.00;101634.03;5054425;28;20473;-64
2023/05/21 06:05:10;;;;;;;10.02;5.57;;;;;;;14.52;100.00;101649.09;5052660;28;20126;-65
2023/05/21 06:07:39;;;;;;;10.02;5.70;;;;;;;14.50;100.00;101643.06;5032845;28;20045;-65
2023/05/21 06:10:08;;;;;;;9.55;5.65;;;;;;;14.58;100.00;101642.56;5033528;28;20179;-65
2023/05/21 06:12:35;;;;;;;12.20;5.60;;;;;;;14.52;100.00;101642.81;5050369;28;20067;-65
2023/05/21 06:15:04;;;;;;;11.00;5.70;;;;;;;14.57;100.00;101645.56;5072498;28;20048;-64
2023/05/21 06:17:33;;;;;;;8.65;5.90;;;;;;;14.58;100.00;101644.50;5056581;28;20102;-65
2023/05/21 06:20:02;;;;;;;11.82;6.03;;;;;;;14.64;100.00;101643.38;5040888;28;20064;-65
2023/05/21 06:22:31;;;;;;;9.90;5.85;;;;;;;14.70;100.00;101645.03;5081835;28;20044;-64
2023/05/21 06:24:58;;;;;;;12.77;5.93;;;;;;;14.73;100.00;101646.41;5054034;28;20445;-62
2023/05/21 06:27:26;;;;;;;11.00;5.72;;;;;;;14.80;100.00;101639.53;5037516;28;20132;-63
2023/05/21 06:29:54;;;;;;;10.30;6.10;;;;;;;14.83;100.00;101644.47;5043121;28;20053;-64
2023/05/21 06:32:24;;;;;;;9.80;6.10;;;;;;;14.79;100.00;101639.78;5066132;28;20041;-62
2023/05/21 06:34:52;;;;;;;9.52;5.75;;;;;;;14.84;100.00;101640.63;5028959;28;20461;-62
2023/05/21 06:37:23;;;;;;;10.20;5.93;;;;;;;14.94;100.00;101638.97;5048219;28;20079;-65
2023/05/21 06:39:53;;;;;;;9.52;5.43;;;;;;;15.01;100.00;101634.00;5051839;28;20099;-65
2023/05/21 06:42:21;;;;;;;10.52;6.55;;;;;;;15.02;100.00;101641.16;5051494;28;20047;-66
2023/05/21 06:45:09;;;;;;;9.82;5.78;;;;;;;14.98;100.00;101634.56;5037756;28;20037;-65
2023/05/21 06:47:41;;;;;;;10.00;6.30;;;;;;;14.95;100.00;101635.94;5053053;28;20053;-64
2023/05/21 06:50:09;;;;;;;9.25;5.65;;;;;;;15.01;100.00;101645.81;5051373;28;20490;-65
2023/05/21 06:52:37;;;;;;;15.40;7.47;;;;;;;14.99;100.00;101638.97;5050072;28;20053;-66
2023/05/21 06:55:06;;;;;;;12.93;6.72;;;;;;;15.00;100.00;101638.66;5030234;28;20057;-65
2023/05/21 06:57:54;;;;;;;11.65;7.00;;;;;;;15.04;100.00;101627.97;5033149;28;20049;-66
2023/05/21 07:00:22;;;;;;;14.05;6.72;;;;;;;15.03;100.00;101631.78;5034949;28;20156;-67
2023/05/21 07:02:51;;;;;;;10.20;7.13;;;;;;;15.08;100.00;101631.78;5073168;28;20048;-64
2023/05/21 07:05:19;;;;;;;11.48;7.30;;;;;;;15.15;99.75;101626.81;4350331;28;10000190;-66
2023/05/21 07:07:47;;;;;;;11.85;7.13;;;;;;;15.23;99.57;101630.94;5048841;28;20049;-67
2023/05/21 07:10:15;;;;;;;12.43;7.13;;;;;;;15.24;99.97;101629.81;5053806;28;20110;-65
2023/05/21 07:12:45;;;;;;;10.85;6.60;;;;;;;15.30;99.91;101637.78;5049777;28;20061;-66
2023/05/21 07:15:13;;;;;;;10.93;6.55;;;;;;;15.31;99.60;101620.19;5027745;28;20077;-66
2023/05/21 07:17:41;;;;;;;10.52;6.38;;;;;;;15.40;99.46;101620.44;5027683;28;20053;-65
2023/05/21 07:20:10;;;;;;;13.75;6.80;;;;;;;15.46;100.00;101618.47;5029715;28;20056;-65
2023/05/21 07:22:42;;;;;;;10.07;7.05;;;;;;;15.51;99.48;101621.19;5034837;28;20094;-67
2023/05/21 07:25:13;;;;;;;14.23;6.78;;;;;;;15.52;98.50;101611.88;5050613;28;20076;-66
2023/05/21 07:27:41;;;;;;;14.15;7.53;;;;;;;15.55;99.68;101614.03;5046121;28;20045;-65
2023/05/21 07:30:09;;;;;;;10.02;6.57;;;;;;;15.56;99.38;101618.44;5058832;28;20051;-65
2023/05/21 07:32:37;;;;;;;12.55;6.85;;;;;;;15.55;99.28;101617.59;5058780;28;20041;-65
2023/05/21 07:35:06;;;;;;;10.98;7.20;;;;;;;15.55;99.45;101616.78;5058603;28;20056;-65
2023/05/21 07:37:34;;;;;;;15.00;7.28;;;;;;;15.62;100.00;101620.06;5075015;28;20052;-66
2023/05/21 07:40:05;;;;;;;14.98;7.07;;;;;;;15.70;98.73;101614.00;5073081;28;20072;-65
2023/05/21 07:42:32;;;;;;;11.27;7.47;;;;;;;15.74;99.25;101619.75;5058548;28;20492;-64
2023/05/21 07:45:01;;;;;;;12.23;7.25;;;;;;;15.72;98.18;101617.28;5041218;28;20063;-65
2023/05/21 07:47:34;;;;;;;15.90;7.43;;;;;;;15.72;98.37;101624.69;5074846;28;20048;-64
2023/05/21 07:50:02;;;;;;;11.23;7.13;;;;;;;15.75;99.50;101616.72;5047235;28;20461;-66
2023/05/21 07:52:30;;;;;;;12.27;8.15;;;;;;;15.82;98.61;101610.91;5034963;28;20053;-65
2023/05/21 07:55:00;;;;;;;12.27;7.53;;;;;;;15.90;98.80;101609.50;5018266;28;20045;-65
2023/05/21 07:57:31;;;;;;;11.43;7.72;;;;;;;15.92;97.85;101608.09;5019188;28;20046;-64
2023/05/21 08:00:04;;;;;;;11.70;7.43;;;;;;;15.96;98.53;101608.34;5056495;28;20072;-65
2023/05/21 08:02:42;;;;;;;17.17;8.27;;;;;;;15.95;98.22;101609.47;5056100;28;20316;-66
2023/05/21 08:05:15;;;;;;;13.40;7.50;;;;;;;16.02;98.26;101612.72;5038706;28;20131;-66
2023/05/21 08:07:45;;;;;;;15.75;7.70;;;;;;;16.08;98.18;101614.31;5054789;28;20508;-64
2023/05/21 08:10:13;;;;;;;11.40;7.10;;;;;;;16.10;97.86;101612.09;5064523;28;20072;-66
2023/05/21 08:12:44;;;;;;;12.43;7.70;;;;;;;16.13;98.04;101606.03;5074420;28;20098;-65
2023/05/21 08:15:12;;;;;;;14.50;8.65;;;;;;;16.16;97.76;101605.47;5074941;28;20062;-66
2023/05/21 08:17:43;;;;;;;13.55;8.40;;;;;;;16.18;97.31;101616.97;5042168;28;20052;-64
2023/05/21 08:20:13;;;;;;;14.30;8.45;;;;;;;16.23;97.22;101616.13;5039875;28;20123;-65
2023/05/21 08:22:44;;;;;;;16.52;8.35;;;;;;;16.24;97.47;101609.53;5074547;28;20439;-64
2023/05/21 08:25:14;;;;;;;16.05;8.27;;;;;;;16.28;98.20;101609.75;5074505;28;20040;-65
2023/05/21 08:27:42;;;;;;;13.70;8.77;;;;;;;16.32;97.26;101608.09;5057864;28;20047;-65
2023/05/21 08:30:10;;;;;;;13.43;7.63;;;;;;;16.36;97.66;101600.91;5062804;28;20068;-65
2023/05/21 08:32:38;;;;;;;12.23;8.30;;;;;;;16.41;98.00;101600.88;5039223;28;20045;-65
2023/05/21 08:35:08;;;;;;;13.63;8.35;;;;;;;16.50;96.51;101599.13;5056313;28;20045;-65
2023/05/21 08:37:53;;;;;;;14.70;8.93;;;;;;;16.50;95.93;101607.41;5055194;28;20072;-65
2023/05/21 08:40:47;;;;;;;14.85;8.82;;;;;;;16.52;96.98;101602.41;5039974;28;20062;-66
2023/05/21 08:43:16;;;;;;;15.13;8.63;;;;;;;16.54;96.14;101593.88;5017627;28;20147;-65
2023/05/21 08:45:52;;;;;;;17.05;9.43;;;;;;;16.56;96.59;101592.47;5034145;28;20099;-65
2023/05/21 08:48:22;;;;;;;11.93;8.30;;;;;;;16.67;96.29;101592.34;5034112;28;20046;-65
2023/05/21 08:50:51;;;;;;;15.00;9.02;;;;;;;16.78;97.35;101599.41;5069447;28;20044;-66
2023/05/21 08:53:27;;;;;;;12.35;9.18;;;;;;;16.85;96.23;101588.09;5071882;28;20096;-65
2023/05/21 08:55:57;;;;;;;15.00;8.35;;;;;;;16.90;95.95;101591.59;5053566;28;20552;-66
2023/05/21 08:58:36;;;;;;;16.58;8.90;;;;;;;16.97;96.27;101586.56;5038618;28;20076;-66
2023/05/21 09:01:05;;;;;;;16.27;9.10;;;;;;;17.11;95.00;101585.88;5037235;28;20069;-65
2023/05/21 09:03:38;;;;;;;15.02;8.77;;;;;;;17.15;94.40;101575.91;5053679;28;20478;-66
2023/05/21 09:06:10;;;;;;;14.38;9.38;;;;;;;17.17;94.00;101573.69;5037573;28;20132;-65
2023/05/21 09:08:42;;;;;;;13.80;9.38;;;;;;;17.15;93.58;101575.91;5039580;28;20087;-65
2023/05/21 09:11:17;;;;;;;13.98;8.93;;;;;;;17.18;94.16;101572.56;5072892;28;20049;-65
2023/05/21 09:13:53;;;;;;;14.50;9.10;;;;;;;17.30;94.59;101572.97;5073717;28;20041;-65
2023/05/21 09:16:28;;;;;;;16.33;9.27;;;;;;;17.34;94.32;101573.19;5040263;28;20072;-66
2023/05/21 09:18:56;;;;;;;15.20;9.50;;;;;;;17.37;93.44;101573.44;5054399;28;20037;-65
2023/05/21 09:21:32;;;;;;;12.90;8.63;;;;;;;17.41;93.64;101568.13;5054793;28;20052;-65
2023/05/21 09:24:05;;;;;;;14.98;9.68;;;;;;;17.47;93.32;101566.97;5072938;28;20389;-65
2023/05/21 09:26:33;;;;;;;14.40;9.60;;;;;;;17.51;92.94;101562.50;5074293;28;20086;-65
2023/05/21 09:29:04;;;;;;;17.63;9.88;;;;;;;17.53;93.29;101563.00;5064279;28;20049;-64
2023/05/21 09:31:31;;;;;;;13.45;9.27;;;;;;;17.62;94.50;101564.00;5054309;28;20489;-65
2023/05/21 09:34:00;;;;;;;14.13;9.63;;;;;;;17.73;91.57;101567.44;5068329;28;20400;-66
2023/05/21 09:36:30;;;;;;;15.77;10.45;;;;;;;17.73;91.71;101559.16;5056491;28;20450;-65
2023/05/21 09:38:59;;;;;;;14.45;9.68;;;;;;;17.71;92.82;101557.81;5072778;28;20098;-65
2023/05/21 09:41:34;;;;;;;15.20;9.90;;;;;;;17.74;92.24;101571.81;5073510;28;20044;-65
2023/05/21 09:44:04;;;;;;;14.02;9.40;;;;;;;17.76;91.66;101566.00;5073093;28;20507;-66
2023/05/21 09:46:40;;;;;;;17.15;10.00;;;;;;;17.77;92.14;101553.84;5063297;28;20051;-65
2023/05/21 09:49:25;;;;;;;14.93;9.55;;;;;;;17.84;92.10;101552.38;5070599;28;20124;-65
2023/05/21 09:51:57;;;;;;;17.25;9.90;;;;;;;17.92;92.04;101558.34;5006015;28;20076;-64
2023/05/21 09:54:31;;;;;;;17.73;9.68;;;;;;;17.99;90.07;101556.03;5038637;28;20049;-65
2023/05/21 09:57:02;;;;;;;18.25;10.77;;;;;;;18.10;90.14;101552.81;5035512;28;20052;-65
2023/05/21 09:59:39;;;;;;;15.85;10.23;;;;;;;18.15;89.24;101549.13;5049441;28;20076;-65
2023/05/21 10:02:21;;;;;;;15.02;10.25;;;;;;;18.19;89.94;101552.94;5054423;28;20044;-64
2023/05/21 10:04:50;;;;;;;16.88;11.25;;;;;;;18.29;88.33;101538.97;5055017;28;20423;-65
2023/05/21 10:07:25;;;;;;;16.90;11.95;;;;;;;18.34;86.55;101545.53;5037500;28;20048;-65
2023/05/21 10:09:56;;;;;;;20.17;12.13;;;;;;;18.34;86.07;101540.81;5053656;28;20048;-65
2023/05/21 10:12:24;;;;;;;15.23;11.95;;;;;;;18.36;87.04;101543.28;5050811;28;20064;-65
2023/05/21 10:14:58;;;;;;;17.35;11.60;;;;;;;18.39;87.42;101542.69;5074856;28;20493;-66
2023/05/21 10:17:26;;;;;;;18.30;11.68;;;;;;;18.42;87.02;101536.53;5075288;28;20436;-65
2023/05/21 10:19:55;;;;;;;19.33;12.23;;;;;;;18.54;86.60;101542.38;5078736;28;20053;-62
2023/05/21 10:22:24;;;;;;;17.27;12.80;;;;;;;18.61;85.97;101544.75;5090618;28;20112;-62
2023/05/21 10:24:52;;;;;;;16.85;13.05;;;;;;;18.57;85.63;101533.53;5069880;28;20072;-64
2023/05/21 10:27:21;;;;;;;18.95;12.85;;;;;;;18.55;85.75;101534.94;5054272;28;20049;-65
2023/05/21 10:29:49;;;;;;;18.52;12.50;;;;;;;18.56;86.40;101537.38;5062965;28;20482;-60
2023/05/21 10:32:17;;;;;;;19.13;13.57;;;;;;;18.62;85.77;101536.19;5066700;28;20048;-61
2023/05/21 10:34:46;;;;;;;19.20;11.60;;;;;;;18.68;85.04;101532.19;5084808;28;20060;-65
2023/05/21 10:37:15;;;;;;;19.10;12.80;;;;;;;18.73;86.10;101534.03;5073614;28;20075;-65
2023/05/21 10:39:47;;;;;;;20.58;13.90;;;;;;;18.85;84.25;101545.41;5072706;28;20527;-64
2023/05/21 10:42:22;;;;;;;20.50;12.93;;;;;;;18.86;83.61;101527.75;5065994;28;20075;-64
2023/05/21 10:45:06;;;;;;;21.52;13.93;;;;;;;18.91;84.58;101526.81;5052717;28;20084;-65
2023/05/21 10:47:47;;;;;;;21.90;14.68;;;;;;;19.00;86.11;101522.22;5053483;28;20052;-64
2023/05/21 10:50:21;;;;;;;18.05;11.38;;;;;;;19.01;84.45;101521.06;5052730;28;20044;-66
2023/05/21 10:53:20;;;;;;;20.13;13.15;;;;;;;18.93;83.90;101514.34;5072340;28;20048;-65
2023/05/21 10:56:13;;;;;;;18.67;13.02;;;;;;;18.90;84.59;101511.34;5073231;28;20041;-65
2023/05/21 10:59:06;;;;;;;25.65;14.05;;;;;;;19.07;84.12;101517.09;5075116;28;20121;-64
2023/05/21 11:01:36;;;;;;;24.38;15.60;;;;;;;19.05;84.13;101513.81;5075388;28;20052;-65
2023/05/21 11:04:05;;;;;;;20.73;14.75;;;;;;;19.03;83.50;101513.31;5075858;28;20056;-67
2023/05/21 11:06:32;;;;;;;20.38;13.48;;;;;;;19.01;83.72;101507.28;5055040;28;20044;-66
2023/05/21 11:09:13;;;;;;;23.98;16.58;;;;;;;19.02;84.38;101506.13;5048705;28;20501;-65
2023/05/21 11:11:47;;;;;;;22.83;15.70;;;;;;;19.14;83.90;101502.84;5064079;28;20066;-65
2023/05/21 11:14:31;;;;;;;19.55;13.20;;;;;;;19.18;83.98;101500.28;5080749;28;20051;-65
2023/05/21 11:17:09;;;;;;;25.77;14.98;;;;;;;19.20;83.27;101493.34;5062453;28;20045;-65
2023/05/21 11:19:49;;;;;;;18.13;11.85;;;;;;;19.15;83.69;101488.72;5055257;28;20036;-65
2023/05/21 11:22:25;;;;;;;20.65;13.73;;;;;;;19.22;85.08;101490.25;5057578;28;20115;-63
2023/05/21 11:24:54;;;;;;;19.70;13.98;;;;;;;19.32;83.70;101498.31;5056218;28;20465;-65
2023/05/21 11:27:36;;;;;;;19.25;11.13;;;;;;;19.30;83.06;101484.81;5055841;28;20477;-65
2023/05/21 11:30:09;;;;;;;19.00;12.13;;;;;;;19.27;83.78;101479.91;5024569;28;20040;-65
2023/05/21 11:32:38;;;;;;;18.92;14.23;;;;;;;19.28;84.23;101483.47;5076751;28;20086;-64
2023/05/21 11:35:07;;;;;;;16.83;12.13;;;;;;;19.28;85.00;101476.00;5075212;28;20060;-65